Almena, Kansas
Current Conditions -  °F | °C
As of 2:53 PM on Friday 28 Nov 2014 (Local Time) from KHLC Reporting Station
Clear Clear  
Wind Chill: 79°   Ceiling: Unl
Heat Index: 79°   Visibility: 10mi
Dew Point: 21°   Wind: 10mph
Humidity: 12%   Direction: 240°WSW
Pressure: 29.73"   Gusts: NA
Location:  39.89°N, 99.71°W
Report Text: KHLC 282053Z AUTO 24009KT 10SM CLR 26/M06 A2973 RMK AO2 SLP060 T02611061 56033
Loading
Personal Weather Stations






























Interactive Weather Map New forecast layout! Learn more

10-Day Weather Forecast

Advertisements
Track Severe Weather on mobile